sensor_id;sensor_type;location;lat;lon;timestamp;P1;durP1;ratioP1;P2;durP2;ratioP2
65535;SDS011;52145;49.342;9.116;2023-02-07T12:42:23;11.50;;;7.40;;
65535;SDS011;52145;49.342;9.116;2023-02-07T12:44:52;11.18;;;6.88;;
65535;SDS011;52145;49.342;9.116;2023-02-07T12:47:32;11.73;;;6.97;;
65535;SDS011;52145;49.342;9.116;2023-02-07T12:50:19;11.23;;;7.07;;
65535;SDS011;52145;49.342;9.116;2023-02-07T12:58:31;9.52;;;6.43;;
65535;SDS011;52145;49.342;9.116;2023-02-07T13:07:05;9.48;;;6.13;;
65535;SDS011;52145;49.342;9.116;2023-02-07T13:12:32;10.23;;;7.07;;
65535;SDS011;52145;49.342;9.116;2023-02-07T13:16:04;10.60;;;6.25;;
65535;SDS011;52145;49.342;9.116;2023-02-07T13:18:09;11.25;;;6.45;;
65535;SDS011;52145;49.342;9.116;2023-02-07T13:20:53;9.30;;;6.00;;
65535;SDS011;52145;49.342;9.116;2023-02-07T13:23:26;10.32;;;6.35;;
65535;SDS011;52145;49.342;9.116;2023-02-07T13:25:55;9.93;;;6.53;;
65535;SDS011;52145;49.342;9.116;2023-02-07T13:28:35;9.02;;;6.30;;
65535;SDS011;52145;49.342;9.116;2023-02-07T13:31:07;9.73;;;6.13;;
65535;SDS011;52145;49.342;9.116;2023-02-07T13:33:35;12.50;;;6.85;;
65535;SDS011;52145;49.342;9.116;2023-02-07T13:42:17;9.45;;;6.10;;
65535;SDS011;52145;49.342;9.116;2023-02-07T13:50:35;10.82;;;6.05;;
65535;SDS011;52145;49.342;9.116;2023-02-07T13:55:53;13.90;;;7.53;;
65535;SDS011;52145;49.342;9.116;2023-02-07T14:01:18;10.32;;;6.68;;
65535;SDS011;52145;49.342;9.116;2023-02-07T14:06:36;10.70;;;5.95;;
65535;SDS011;52145;49.342;9.116;2023-02-07T14:09:19;9.18;;;5.78;;
65535;SDS011;52145;49.342;9.116;2023-02-07T14:12:00;9.57;;;6.25;;
65535;SDS011;52145;49.342;9.116;2023-02-07T14:14:30;10.68;;;6.75;;
65535;SDS011;52145;49.342;9.116;2023-02-07T14:17:09;10.07;;;6.70;;
65535;SDS011;52145;49.342;9.116;2023-02-07T14:22:14;12.20;;;6.88;;
65535;SDS011;52145;49.342;9.116;2023-02-07T14:37:47;11.13;;;5.95;;
65535;SDS011;52145;49.342;9.116;2023-02-07T14:40:24;11.98;;;6.72;;
65535;SDS011;52145;49.342;9.116;2023-02-07T14:45:33;10.13;;;6.38;;
65535;SDS011;52145;49.342;9.116;2023-02-07T14:48:00;10.48;;;6.15;;
65535;SDS011;52145;49.342;9.116;2023-02-07T14:50:26;8.98;;;6.47;;
65535;SDS011;52145;49.342;9.116;2023-02-07T14:52:58;15.70;;;7.03;;
65535;SDS011;52145;49.342;9.116;2023-02-07T14:55:41;10.13;;;6.95;;
65535;SDS011;52145;49.342;9.116;2023-02-07T15:00:55;10.70;;;6.15;;
65535;SDS011;52145;49.342;9.116;2023-02-07T15:03:29;9.73;;;6.28;;
65535;SDS011;52145;49.342;9.116;2023-02-07T15:05:59;20.70;;;7.00;;
65535;SDS011;52145;49.342;9.116;2023-02-07T15:08:26;12.15;;;6.30;;
65535;SDS011;52145;49.342;9.116;2023-02-07T15:10:55;11.50;;;6.35;;
65535;SDS011;52145;49.342;9.116;2023-02-07T15:16:05;12.45;;;6.72;;
65535;SDS011;52145;49.342;9.116;2023-02-07T15:18:40;10.85;;;6.25;;
65535;SDS011;52145;49.342;9.116;2023-02-07T15:21:33;13.88;;;7.10;;
65535;SDS011;52145;49.342;9.116;2023-02-07T15:24:02;11.25;;;6.63;;
65535;SDS011;52145;49.342;9.116;2023-02-07T15:26:30;14.20;;;6.95;;
65535;SDS011;52145;49.342;9.116;2023-02-07T15:28:57;12.20;;;7.05;;
65535;SDS011;52145;49.342;9.116;2023-02-07T15:31:25;13.32;;;6.95;;
65535;SDS011;52145;49.342;9.116;2023-02-07T15:33:52;13.68;;;7.47;;
65535;SDS011;52145;49.342;9.116;2023-02-07T15:36:36;12.57;;;7.63;;
65535;SDS011;52145;49.342;9.116;2023-02-07T15:39:16;11.95;;;6.93;;
65535;SDS011;52145;49.342;9.116;2023-02-07T15:41:53;15.20;;;7.45;;
65535;SDS011;52145;49.342;9.116;2023-02-07T15:44:20;13.32;;;7.68;;
65535;SDS011;52145;49.342;9.116;2023-02-07T15:46:54;13.07;;;7.18;;
65535;SDS011;52145;49.342;9.116;2023-02-07T15:49:40;12.85;;;6.85;;
65535;SDS011;52145;49.342;9.116;2023-02-07T15:52:16;13.70;;;8.57;;
65535;SDS011;52145;49.342;9.116;2023-02-07T15:55:04;13.20;;;7.22;;
65535;SDS011;52145;49.342;9.116;2023-02-07T15:57:45;14.50;;;8.00;;
65535;SDS011;52145;49.342;9.116;2023-02-07T16:00:15;13.30;;;7.45;;
65535;SDS011;52145;49.342;9.116;2023-02-07T16:02:42;12.45;;;7.28;;
65535;SDS011;52145;49.342;9.116;2023-02-07T16:07:47;14.32;;;8.10;;
65535;SDS011;52145;49.342;9.116;2023-02-07T16:10:14;14.07;;;8.02;;
65535;SDS011;52145;49.342;9.116;2023-02-07T16:12:47;15.85;;;8.27;;
65535;SDS011;52145;49.342;9.116;2023-02-07T16:17:46;14.30;;;7.38;;
65535;SDS011;52145;49.342;9.116;2023-02-07T16:20:12;14.55;;;7.60;;
65535;SDS011;52145;49.342;9.116;2023-02-07T16:22:39;15.88;;;9.05;;
65535;SDS011;52145;49.342;9.116;2023-02-07T16:25:11;15.05;;;8.20;;
65535;SDS011;52145;49.342;9.116;2023-02-07T16:27:39;16.27;;;9.13;;
65535;SDS011;52145;49.342;9.116;2023-02-07T16:30:04;16.88;;;9.40;;
65535;SDS011;52145;49.342;9.116;2023-02-07T16:32:36;15.68;;;8.50;;
65535;SDS011;52145;49.342;9.116;2023-02-07T16:35:05;15.77;;;8.35;;
65535;SDS011;52145;49.342;9.116;2023-02-07T16:37:56;17.10;;;9.40;;
65535;SDS011;52145;49.342;9.116;2023-02-07T16:40:22;17.17;;;8.93;;
65535;SDS011;52145;49.342;9.116;2023-02-07T16:42:48;17.70;;;9.32;;
65535;SDS011;52145;49.342;9.116;2023-02-07T16:45:24;14.85;;;8.52;;
65535;SDS011;52145;49.342;9.116;2023-02-07T16:47:51;15.20;;;8.33;;
65535;SDS011;52145;49.342;9.116;2023-02-07T16:50:26;18.17;;;9.73;;
65535;SDS011;52145;49.342;9.116;2023-02-07T16:52:53;19.50;;;10.02;;
65535;SDS011;52145;49.342;9.116;2023-02-07T16:55:26;15.82;;;10.48;;
65535;SDS011;52145;49.342;9.116;2023-02-07T16:57:52;25.23;;;13.35;;
65535;SDS011;52145;49.342;9.116;2023-02-07T17:00:19;27.98;;;13.23;;
65535;SDS011;52145;49.342;9.116;2023-02-07T17:02:47;23.58;;;11.95;;
65535;SDS011;52145;49.342;9.116;2023-02-07T17:05:17;19.75;;;11.35;;
65535;SDS011;52145;49.342;9.116;2023-02-07T17:07:44;24.13;;;11.77;;
65535;SDS011;52145;49.342;9.116;2023-02-07T17:10:15;21.75;;;11.75;;
65535;SDS011;52145;49.342;9.116;2023-02-07T17:12:42;22.38;;;12.10;;
65535;SDS011;52145;49.342;9.116;2023-02-07T17:15:07;19.60;;;11.63;;
65535;SDS011;52145;49.342;9.116;2023-02-07T17:17:33;28.23;;;12.68;;
65535;SDS011;52145;49.342;9.116;2023-02-07T17:19:59;30.88;;;15.00;;
65535;SDS011;52145;49.342;9.116;2023-02-07T17:22:25;30.27;;;16.52;;
65535;SDS011;52145;49.342;9.116;2023-02-07T17:24:50;31.50;;;15.43;;
65535;SDS011;52145;49.342;9.116;2023-02-07T17:27:17;29.80;;;14.73;;
65535;SDS011;52145;49.342;9.116;2023-02-07T17:29:43;23.75;;;13.23;;
65535;SDS011;52145;49.342;9.116;2023-02-07T17:32:09;24.63;;;12.77;;
65535;SDS011;52145;49.342;9.116;2023-02-07T17:34:35;23.17;;;12.38;;
65535;SDS011;52145;49.342;9.116;2023-02-07T17:37:00;27.90;;;12.98;;
65535;SDS011;52145;49.342;9.116;2023-02-07T17:39:26;24.70;;;12.45;;
65535;SDS011;52145;49.342;9.116;2023-02-07T17:41:52;17.83;;;10.88;;
65535;SDS011;52145;49.342;9.116;2023-02-07T17:44:17;19.20;;;10.48;;
65535;SDS011;52145;49.342;9.116;2023-02-07T17:46:48;22.00;;;10.30;;
65535;SDS011;52145;49.342;9.116;2023-02-07T17:49:14;19.55;;;10.90;;
65535;SDS011;52145;49.342;9.116;2023-02-07T17:51:40;23.00;;;11.55;;
65535;SDS011;52145;49.342;9.116;2023-02-07T17:54:06;21.45;;;11.27;;
65535;SDS011;52145;49.342;9.116;2023-02-07T17:56:32;23.17;;;11.82;;
65535;SDS011;52145;49.342;9.116;2023-02-07T17:58:59;27.70;;;11.18;;
65535;SDS011;52145;49.342;9.116;2023-02-07T18:01:26;24.90;;;12.10;;
65535;SDS011;52145;49.342;9.116;2023-02-07T18:03:53;22.60;;;12.18;;
65535;SDS011;52145;49.342;9.116;2023-02-07T18:06:19;25.08;;;11.85;;
65535;SDS011;52145;49.342;9.116;2023-02-07T18:08:49;21.08;;;11.23;;
65535;SDS011;52145;49.342;9.116;2023-02-07T18:11:15;19.98;;;11.65;;
65535;SDS011;52145;49.342;9.116;2023-02-07T18:13:42;24.92;;;11.77;;
65535;SDS011;52145;49.342;9.116;2023-02-07T18:16:09;20.75;;;11.13;;
65535;SDS011;52145;49.342;9.116;2023-02-07T18:18:45;31.73;;;14.70;;
65535;SDS011;52145;49.342;9.116;2023-02-07T18:21:11;22.00;;;11.98;;
65535;SDS011;52145;49.342;9.116;2023-02-07T18:23:37;19.90;;;10.70;;
65535;SDS011;52145;49.342;9.116;2023-02-07T18:26:02;21.40;;;11.95;;
65535;SDS011;52145;49.342;9.116;2023-02-07T18:28:28;22.20;;;11.98;;
65535;SDS011;52145;49.342;9.116;2023-02-07T18:30:55;21.02;;;10.07;;
65535;SDS011;52145;49.342;9.116;2023-02-07T18:33:20;20.10;;;11.05;;
65535;SDS011;52145;49.342;9.116;2023-02-07T18:35:46;22.95;;;12.73;;
65535;SDS011;52145;49.342;9.116;2023-02-07T18:38:15;22.48;;;11.18;;
65535;SDS011;52145;49.342;9.116;2023-02-07T18:40:41;21.23;;;11.88;;
65535;SDS011;52145;49.342;9.116;2023-02-07T18:43:06;22.67;;;12.18;;
65535;SDS011;52145;49.342;9.116;2023-02-07T18:45:32;19.83;;;11.43;;
65535;SDS011;52145;49.342;9.116;2023-02-07T18:48:00;21.95;;;11.13;;
65535;SDS011;52145;49.342;9.116;2023-02-07T18:50:26;19.80;;;11.30;;
65535;SDS011;52145;49.342;9.116;2023-02-07T18:52:52;27.40;;;10.38;;
65535;SDS011;52145;49.342;9.116;2023-02-07T18:55:18;24.73;;;11.63;;
65535;SDS011;52145;49.342;9.116;2023-02-07T18:57:44;22.08;;;11.85;;
65535;SDS011;52145;49.342;9.116;2023-02-07T19:00:09;20.00;;;10.98;;
65535;SDS011;52145;49.342;9.116;2023-02-07T19:02:35;17.55;;;10.43;;
65535;SDS011;52145;49.342;9.116;2023-02-07T19:05:01;22.77;;;11.60;;
65535;SDS011;52145;49.342;9.116;2023-02-07T19:07:26;20.77;;;11.98;;
65535;SDS011;52145;49.342;9.116;2023-02-07T19:09:52;25.65;;;12.82;;
65535;SDS011;52145;49.342;9.116;2023-02-07T19:12:17;22.90;;;12.23;;
65535;SDS011;52145;49.342;9.116;2023-02-07T19:14:43;26.98;;;12.77;;
65535;SDS011;52145;49.342;9.116;2023-02-07T19:17:08;24.23;;;12.00;;
65535;SDS011;52145;49.342;9.116;2023-02-07T19:19:34;25.35;;;12.25;;
65535;SDS011;52145;49.342;9.116;2023-02-07T19:21:59;24.98;;;13.18;;
65535;SDS011;52145;49.342;9.116;2023-02-07T19:24:25;25.10;;;12.43;;
65535;SDS011;52145;49.342;9.116;2023-02-07T19:26:52;24.75;;;11.55;;
65535;SDS011;52145;49.342;9.116;2023-02-07T19:29:20;20.92;;;11.52;;
65535;SDS011;52145;49.342;9.116;2023-02-07T19:31:52;19.60;;;10.80;;
65535;SDS011;52145;49.342;9.116;2023-02-07T19:34:22;22.75;;;12.02;;
65535;SDS011;52145;49.342;9.116;2023-02-07T19:36:48;22.42;;;11.15;;
65535;SDS011;52145;49.342;9.116;2023-02-07T19:39:13;23.08;;;11.77;;
65535;SDS011;52145;49.342;9.116;2023-02-07T19:41:39;19.23;;;11.80;;
65535;SDS011;52145;49.342;9.116;2023-02-07T19:44:04;23.63;;;12.57;;
65535;SDS011;52145;49.342;9.116;2023-02-07T19:46:30;25.25;;;12.18;;
65535;SDS011;52145;49.342;9.116;2023-02-07T19:48:56;21.92;;;12.30;;
65535;SDS011;52145;49.342;9.116;2023-02-07T19:51:23;25.30;;;12.27;;
65535;SDS011;52145;49.342;9.116;2023-02-07T19:53:51;23.23;;;12.75;;
65535;SDS011;52145;49.342;9.116;2023-02-07T19:56:19;27.90;;;15.32;;
65535;SDS011;52145;49.342;9.116;2023-02-07T19:58:48;22.42;;;13.05;;
65535;SDS011;52145;49.342;9.116;2023-02-07T20:01:15;20.00;;;11.80;;
65535;SDS011;52145;49.342;9.116;2023-02-07T20:03:42;24.95;;;13.60;;
65535;SDS011;52145;49.342;9.116;2023-02-07T20:06:09;20.55;;;11.13;;
65535;SDS011;52145;49.342;9.116;2023-02-07T20:08:36;21.27;;;12.55;;
65535;SDS011;52145;49.342;9.116;2023-02-07T20:11:07;23.80;;;13.32;;
65535;SDS011;52145;49.342;9.116;2023-02-07T20:13:34;18.63;;;10.93;;
65535;SDS011;52145;49.342;9.116;2023-02-07T20:16:02;19.13;;;10.55;;
65535;SDS011;52145;49.342;9.116;2023-02-07T20:18:29;19.48;;;10.50;;
65535;SDS011;52145;49.342;9.116;2023-02-07T20:20:54;22.70;;;11.38;;
65535;SDS011;52145;49.342;9.116;2023-02-07T20:23:20;20.63;;;11.35;;
65535;SDS011;52145;49.342;9.116;2023-02-07T20:25:46;20.80;;;11.05;;
65535;SDS011;52145;49.342;9.116;2023-02-07T20:28:11;18.80;;;11.15;;
65535;SDS011;52145;49.342;9.116;2023-02-07T20:30:41;21.33;;;11.48;;
65535;SDS011;52145;49.342;9.116;2023-02-07T20:33:07;22.15;;;11.70;;
65535;SDS011;52145;49.342;9.116;2023-02-07T20:35:35;25.33;;;12.27;;
65535;SDS011;52145;49.342;9.116;2023-02-07T20:38:01;22.45;;;11.90;;
65535;SDS011;52145;49.342;9.116;2023-02-07T20:40:28;23.10;;;10.45;;
65535;SDS011;52145;49.342;9.116;2023-02-07T20:42:53;23.40;;;11.57;;
65535;SDS011;52145;49.342;9.116;2023-02-07T20:45:19;21.65;;;12.10;;
65535;SDS011;52145;49.342;9.116;2023-02-07T20:47:44;20.40;;;11.13;;
65535;SDS011;52145;49.342;9.116;2023-02-07T20:50:10;19.75;;;11.32;;
65535;SDS011;52145;49.342;9.116;2023-02-07T20:52:36;19.88;;;11.27;;
65535;SDS011;52145;49.342;9.116;2023-02-07T20:55:02;22.73;;;11.93;;
65535;SDS011;52145;49.342;9.116;2023-02-07T20:57:29;25.00;;;13.40;;
65535;SDS011;52145;49.342;9.116;2023-02-07T20:59:54;23.80;;;13.13;;
65535;SDS011;52145;49.342;9.116;2023-02-07T21:02:20;24.17;;;12.68;;
65535;SDS011;52145;49.342;9.116;2023-02-07T21:04:45;39.38;;;12.95;;
65535;SDS011;52145;49.342;9.116;2023-02-07T21:07:11;25.33;;;12.30;;
65535;SDS011;52145;49.342;9.116;2023-02-07T21:09:36;22.95;;;11.52;;
65535;SDS011;52145;49.342;9.116;2023-02-07T21:12:02;22.98;;;10.95;;
65535;SDS011;52145;49.342;9.116;2023-02-07T21:14:30;24.23;;;12.40;;
65535;SDS011;52145;49.342;9.116;2023-02-07T21:16:58;61.03;;;25.75;;
65535;SDS011;52145;49.342;9.116;2023-02-07T21:19:25;32.28;;;12.95;;
65535;SDS011;52145;49.342;9.116;2023-02-07T21:21:51;20.42;;;11.55;;
65535;SDS011;52145;49.342;9.116;2023-02-07T21:24:19;20.70;;;10.82;;
65535;SDS011;52145;49.342;9.116;2023-02-07T21:26:49;18.98;;;10.10;;
65535;SDS011;52145;49.342;9.116;2023-02-07T21:29:16;24.40;;;12.50;;
65535;SDS011;52145;49.342;9.116;2023-02-07T21:31:42;18.58;;;11.63;;
65535;SDS011;52145;49.342;9.116;2023-02-07T21:34:09;24.30;;;12.10;;
65535;SDS011;52145;49.342;9.116;2023-02-07T21:36:36;21.25;;;10.70;;
65535;SDS011;52145;49.342;9.116;2023-02-07T21:39:04;20.35;;;11.07;;
65535;SDS011;52145;49.342;9.116;2023-02-07T21:41:33;27.75;;;12.98;;
65535;SDS011;52145;49.342;9.116;2023-02-07T21:44:00;19.25;;;9.88;;
65535;SDS011;52145;49.342;9.116;2023-02-07T21:46:30;23.42;;;12.13;;
65535;SDS011;52145;49.342;9.116;2023-02-07T21:48:58;19.65;;;10.45;;
65535;SDS011;52145;49.342;9.116;2023-02-07T21:51:25;21.20;;;10.77;;
65535;SDS011;52145;49.342;9.116;2023-02-07T21:53:53;21.70;;;11.65;;
65535;SDS011;52145;49.342;9.116;2023-02-07T21:56:21;24.10;;;11.43;;
65535;SDS011;52145;49.342;9.116;2023-02-07T21:58:52;20.45;;;11.18;;
65535;SDS011;52145;49.342;9.116;2023-02-07T22:01:19;22.25;;;12.77;;
65535;SDS011;52145;49.342;9.116;2023-02-07T22:03:47;24.75;;;12.18;;
65535;SDS011;52145;49.342;9.116;2023-02-07T22:06:14;22.20;;;11.13;;
65535;SDS011;52145;49.342;9.116;2023-02-07T22:08:44;23.08;;;11.77;;
65535;SDS011;52145;49.342;9.116;2023-02-07T22:11:15;23.20;;;12.07;;
65535;SDS011;52145;49.342;9.116;2023-02-07T22:13:42;22.73;;;11.93;;
65535;SDS011;52145;49.342;9.116;2023-02-07T22:16:09;24.77;;;14.45;;
65535;SDS011;52145;49.342;9.116;2023-02-07T22:18:37;20.55;;;11.50;;
65535;SDS011;52145;49.342;9.116;2023-02-07T22:21:04;27.08;;;11.52;;
65535;SDS011;52145;49.342;9.116;2023-02-07T22:23:32;22.80;;;11.23;;
65535;SDS011;52145;49.342;9.116;2023-02-07T22:25:58;23.15;;;12.07;;
65535;SDS011;52145;49.342;9.116;2023-02-07T22:28:24;23.45;;;11.88;;
65535;SDS011;52145;49.342;9.116;2023-02-07T22:30:50;24.23;;;12.75;;
65535;SDS011;52145;49.342;9.116;2023-02-07T22:33:15;21.77;;;11.75;;
65535;SDS011;52145;49.342;9.116;2023-02-07T22:35:41;22.30;;;11.80;;
65535;SDS011;52145;49.342;9.116;2023-02-07T22:38:08;24.75;;;13.57;;
65535;SDS011;52145;49.342;9.116;2023-02-07T22:40:36;25.30;;;12.73;;
65535;SDS011;52145;49.342;9.116;2023-02-07T22:43:07;24.35;;;12.40;;
65535;SDS011;52145;49.342;9.116;2023-02-07T22:45:38;21.80;;;11.85;;
65535;SDS011;52145;49.342;9.116;2023-02-07T22:48:06;26.88;;;12.52;;
65535;SDS011;52145;49.342;9.116;2023-02-07T22:50:32;24.80;;;12.55;;
65535;SDS011;52145;49.342;9.116;2023-02-07T22:52:58;23.63;;;13.05;;
65535;SDS011;52145;49.342;9.116;2023-02-07T22:55:23;21.80;;;12.73;;
65535;SDS011;52145;49.342;9.116;2023-02-07T22:57:49;25.58;;;13.10;;
65535;SDS011;52145;49.342;9.116;2023-02-07T23:00:15;23.50;;;12.45;;
65535;SDS011;52145;49.342;9.116;2023-02-07T23:02:42;26.73;;;12.95;;
65535;SDS011;52145;49.342;9.116;2023-02-07T23:05:07;22.67;;;12.32;;
65535;SDS011;52145;49.342;9.116;2023-02-07T23:07:34;22.92;;;11.98;;
65535;SDS011;52145;49.342;9.116;2023-02-07T23:09:59;26.10;;;13.00;;
65535;SDS011;52145;49.342;9.116;2023-02-07T23:12:25;25.17;;;12.15;;
65535;SDS011;52145;49.342;9.116;2023-02-07T23:14:51;24.52;;;14.43;;
65535;SDS011;52145;49.342;9.116;2023-02-07T23:17:16;25.52;;;13.20;;
65535;SDS011;52145;49.342;9.116;2023-02-07T23:19:42;24.85;;;12.55;;
65535;SDS011;52145;49.342;9.116;2023-02-07T23:22:07;20.80;;;11.60;;
65535;SDS011;52145;49.342;9.116;2023-02-07T23:24:33;21.17;;;11.60;;
65535;SDS011;52145;49.342;9.116;2023-02-07T23:26:59;21.58;;;12.02;;
65535;SDS011;52145;49.342;9.116;2023-02-07T23:29:24;24.38;;;11.35;;
65535;SDS011;52145;49.342;9.116;2023-02-07T23:31:50;25.17;;;11.82;;
65535;SDS011;52145;49.342;9.116;2023-02-07T23:34:16;21.58;;;11.15;;
65535;SDS011;52145;49.342;9.116;2023-02-07T23:36:42;22.77;;;11.13;;
65535;SDS011;52145;49.342;9.116;2023-02-07T23:39:07;22.83;;;12.13;;
65535;SDS011;52145;49.342;9.116;2023-02-07T23:41:34;23.48;;;11.75;;
65535;SDS011;52145;49.342;9.116;2023-02-07T23:43:59;25.83;;;10.82;;
65535;SDS011;52145;49.342;9.116;2023-02-07T23:46:26;25.23;;;11.95;;
65535;SDS011;52145;49.342;9.116;2023-02-07T23:48:52;21.65;;;11.02;;
65535;SDS011;52145;49.342;9.116;2023-02-07T23:51:18;22.67;;;11.68;;
65535;SDS011;52145;49.342;9.116;2023-02-07T23:53:44;20.92;;;11.48;;
65535;SDS011;52145;49.342;9.116;2023-02-07T23:56:12;20.83;;;11.63;;
65535;SDS011;52145;49.342;9.116;2023-02-07T23:58:40;22.40;;;12.05;;
